Time;durP1;ratioP1;P1;durP2;ratioP2;P2;SDS_P1;SDS_P2;PMS_P1;PMS_P2;Temp;Humidity;BMP_temperature;BMP_pressure;BME280_temperature;BME280_humidity;BME280_pressure;Samples;Min_cycle;Max_cycle;Signal;HPM_P1;HPM_P2
2022/09/13 00:04:52;;;;;;;6.90;2.50;;;14.80;99.90;;;;;;10368665;28;20144;-62
2022/09/13 00:09:54;;;;;;;5.00;2.47;;;14.80;99.90;;;;;;10370514;28;20515;-63
2022/09/13 00:14:55;;;;;;;4.30;1.92;;;14.70;99.90;;;;;;10371337;28;20138;-63
2022/09/13 00:19:57;;;;;;;4.75;2.45;;;14.70;99.90;;;;;;10362171;28;20140;-63
2022/09/13 00:24:59;;;;;;;4.47;2.83;;;14.70;99.90;;;;;;10373328;28;20049;-61
2022/09/13 00:30:01;;;;;;;4.40;1.98;;;14.60;99.90;;;;;;10370941;28;20049;-62
2022/09/13 00:35:04;;;;;;;3.88;2.28;;;14.60;99.90;;;;;;10365057;28;20128;-62
2022/09/13 00:40:06;;;;;;;5.60;2.50;;;14.50;99.90;;;;;;10369102;28;20100;-62
2022/09/13 00:45:11;;;;;;;5.80;2.85;;;14.50;99.90;;;;;;10370220;28;20053;-62
2022/09/13 00:50:39;;;;;;;6.30;2.75;;;14.50;99.90;;;;;;10372567;28;20672;-62
2022/09/13 00:55:49;;;;;;;;;;;14.40;99.90;;;;;;10371414;28;20153;-60
2022/09/13 01:00:54;;;;;;;6.15;2.08;;;14.30;99.90;;;;;;10366529;28;20459;-62
2022/09/13 01:06:03;;;;;;;11.43;2.70;;;14.20;99.90;;;;;;10369052;28;20103;-61
2022/09/13 01:11:11;;;;;;;5.28;2.90;;;14.20;99.90;;;;;;10371606;28;20068;-62
2022/09/13 01:16:12;;;;;;;6.22;2.75;;;14.10;99.90;;;;;;10369606;28;20089;-63
2022/09/13 01:22:00;;;;;;;7.40;2.63;;;14.00;99.90;;;;;;10370256;28;20050;-62
2022/09/13 01:27:22;;;;;;;7.50;2.47;;;13.90;99.90;;;;;;10366122;28;20664;-62
2022/09/13 01:32:40;;;;;;;8.25;2.78;;;13.90;99.90;;;;;;10367991;28;20465;-62
2022/09/13 01:37:57;;;;;;;;;;;13.90;99.90;;;;;;10369538;28;20041;-62
2022/09/13 01:43:11;;;;;;;5.40;2.38;;;13.90;99.90;;;;;;10366257;28;20008;-65
2022/09/13 01:48:19;;;;;;;7.97;3.15;;;13.80;99.90;;;;;;10376667;28;20061;-62
2022/09/13 01:53:39;;;;;;;6.50;2.15;;;13.80;99.90;;;;;;10375011;28;20073;-61
2022/09/13 01:59:04;;;;;;;6.20;2.70;;;13.80;99.90;;;;;;10374487;28;20160;-62
2022/09/13 02:04:12;;;;;;;7.38;2.50;;;13.70;99.90;;;;;;10374196;28;20129;-61
2022/09/13 02:09:18;;;;;;;8.82;2.33;;;13.60;99.90;;;;;;10377618;28;20050;-63
2022/09/13 02:14:28;;;;;;;4.82;2.78;;;13.60;99.90;;;;;;10370468;28;20066;-61
2022/09/13 02:19:34;;;;;;;10.63;2.63;;;13.50;99.90;;;;;;10375443;28;20055;-60
2022/09/13 02:24:44;;;;;;;9.60;3.20;;;13.50;99.90;;;;;;10369934;28;20145;-62
2022/09/13 02:29:49;;;;;;;5.53;2.67;;;13.50;99.90;;;;;;10377688;28;20073;-62
2022/09/13 02:35:24;;;;;;;9.98;2.67;;;13.60;99.90;;;;;;10373552;28;20045;-61
2022/09/13 02:40:29;;;;;;;7.75;2.60;;;13.60;99.90;;;;;;10326149;28;20053;-62
2022/09/13 02:45:40;;;;;;;7.57;2.67;;;13.60;99.90;;;;;;10373361;28;20124;-62
2022/09/13 02:51:03;;;;;;;8.65;3.22;;;13.60;99.90;;;;;;10373564;28;20038;-63
2022/09/13 02:56:26;;;;;;;5.10;2.63;;;13.60;99.90;;;;;;10369909;28;20481;-63
2022/09/13 03:01:28;;;;;;;4.93;2.70;;;13.60;99.90;;;;;;10380246;28;20049;-63
2022/09/13 03:06:30;;;;;;;10.25;2.28;;;13.60;99.90;;;;;;10370350;28;20064;-62
2022/09/13 03:11:55;;;;;;;3.90;2.80;;;13.70;99.90;;;;;;10388269;28;20663;-61
2022/09/13 03:17:15;;;;;;;7.57;2.63;;;13.70;99.90;;;;;;10372425;28;20128;-62
2022/09/13 03:22:38;;;;;;;5.80;2.72;;;13.80;99.90;;;;;;10368452;28;20164;-63
2022/09/13 03:27:59;;;;;;;4.68;2.10;;;13.80;99.90;;;;;;10361934;28;20073;-62
2022/09/13 03:33:34;;;;;;;9.20;2.65;;;13.90;99.90;;;;;;10373743;28;20037;-65
2022/09/13 03:38:52;;;;;;;7.32;2.72;;;13.90;99.90;;;;;;10362604;28;20048;-62
2022/09/13 03:44:01;;;;;;;10.27;2.78;;;13.90;99.90;;;;;;10370064;28;20134;-61
2022/09/13 03:49:08;;;;;;;5.05;2.95;;;13.90;99.90;;;;;;10371104;28;20081;-62
2022/09/13 03:54:17;;;;;;;7.70;3.63;;;13.90;99.90;;;;;;10375636;28;20061;-63
2022/09/13 03:59:19;;;;;;;8.35;3.22;;;13.90;99.90;;;;;;10375294;28;22553;-63
2022/09/13 04:04:21;;;;;;;9.68;2.63;;;13.90;99.90;;;;;;10373434;28;20045;-62
2022/09/13 04:09:23;;;;;;;7.53;3.13;;;13.90;99.90;;;;;;10369512;28;20115;-62
2022/09/13 04:14:27;;;;;;;11.77;4.35;;;13.80;99.90;;;;;;10372968;28;20434;-62
2022/09/13 04:19:30;;;;;;;11.45;3.17;;;13.80;99.90;;;;;;10367650;28;20531;-63
2022/09/13 04:24:32;;;;;;;5.30;2.95;;;13.80;99.90;;;;;;10371009;28;20096;-63
2022/09/13 04:29:33;;;;;;;5.60;3.30;;;13.80;99.90;;;;;;10371456;28;20463;-63
2022/09/13 04:34:35;;;;;;;9.98;4.30;;;13.90;99.90;;;;;;10367967;28;20054;-62
2022/09/13 04:39:37;;;;;;;8.32;3.65;;;13.90;99.90;;;;;;10368471;28;20133;-62
2022/09/13 04:44:39;;;;;;;10.25;4.75;;;13.90;99.90;;;;;;10362502;28;20172;-62
2022/09/13 04:49:41;;;;;;;11.30;3.83;;;13.80;99.90;;;;;;10372135;28;20049;-64
2022/09/13 04:54:42;;;;;;;9.02;4.05;;;13.90;99.90;;;;;;10363230;28;20140;-63
2022/09/13 04:59:44;;;;;;;7.70;4.25;;;13.90;99.90;;;;;;10373842;28;20165;-64
2022/09/13 05:04:46;;;;;;;7.60;4.20;;;13.90;99.90;;;;;;10385987;28;20045;-64
2022/09/13 05:09:47;;;;;;;7.53;3.47;;;14.00;99.90;;;;;;10377608;28;20456;-63
2022/09/13 05:14:49;;;;;;;7.65;3.70;;;14.00;99.90;;;;;;10371265;28;20498;-65
2022/09/13 05:19:51;;;;;;;7.05;3.95;;;14.00;99.90;;;;;;10393596;28;20045;-64
2022/09/13 05:24:52;;;;;;;10.07;3.97;;;14.10;99.90;;;;;;10386296;28;20081;-64
2022/09/13 05:29:54;;;;;;;8.75;4.15;;;14.20;99.90;;;;;;10394503;28;20105;-65
2022/09/13 05:34:56;;;;;;;9.15;3.63;;;14.20;99.90;;;;;;10386629;28;20053;-64
2022/09/13 05:39:57;;;;;;;7.55;4.30;;;14.20;99.90;;;;;;10388894;28;20042;-65
2022/09/13 05:45:14;;;;;;;11.20;4.45;;;14.30;99.90;;;;;;10384673;28;20121;-64
2022/09/13 05:50:16;;;;;;;7.22;3.65;;;14.40;99.90;;;;;;10385618;28;20049;-64
2022/09/13 05:55:38;;;;;;;7.90;3.97;;;14.40;99.90;;;;;;10378973;28;20054;-65
2022/09/13 06:00:39;;;;;;;8.98;4.45;;;14.50;99.90;;;;;;10385317;28;20069;-64
2022/09/13 06:05:41;;;;;;;9.32;4.00;;;14.50;99.90;;;;;;10387577;28;20933;-65
2022/09/13 06:10:43;;;;;;;9.98;4.55;;;14.60;99.90;;;;;;10392022;28;20053;-65
2022/09/13 06:15:44;;;;;;;9.93;3.88;;;14.60;99.90;;;;;;10390604;28;20109;-65
2022/09/13 06:20:46;;;;;;;10.48;4.40;;;14.70;99.90;;;;;;10388363;28;20077;-64
2022/09/13 06:25:48;;;;;;;9.20;4.43;;;14.70;99.90;;;;;;10396350;28;20066;-64
2022/09/13 06:30:50;;;;;;;9.35;4.18;;;14.90;99.90;;;;;;10387446;28;23216;-64
2022/09/13 06:35:51;;;;;;;12.05;4.85;;;15.00;99.90;;;;;;10401125;28;20088;-64
2022/09/13 06:41:06;;;;;;;7.68;3.83;;;15.10;99.90;;;;;;10391053;28;20045;-64
2022/09/13 06:46:13;;;;;;;10.18;4.47;;;15.20;99.90;;;;;;10389625;28;20081;-65
2022/09/13 06:51:17;;;;;;;11.57;4.40;;;15.20;99.90;;;;;;10394754;28;20053;-65
2022/09/13 06:56:31;;;;;;;11.68;4.63;;;15.30;99.90;;;;;;10397838;28;20084;-64
2022/09/13 07:01:35;;;;;;;8.90;5.13;;;15.50;99.90;;;;;;10397107;28;20049;-63
2022/09/13 07:06:39;;;;;;;10.90;4.78;;;15.70;99.90;;;;;;10400395;28;20057;-63
2022/09/13 07:11:42;;;;;;;9.85;4.25;;;15.70;99.90;;;;;;10397026;28;20049;-63
2022/09/13 07:16:45;;;;;;;10.25;4.28;;;15.90;99.90;;;;;;10395967;28;20072;-62
2022/09/13 07:21:48;;;;;;;9.98;4.68;;;16.00;99.90;;;;;;10396244;28;20117;-63
2022/09/13 07:26:50;;;;;;;13.32;4.57;;;16.10;99.90;;;;;;10389752;28;20085;-64
2022/09/13 07:31:54;;;;;;;10.20;5.15;;;16.20;99.90;;;;;;10393741;28;20109;-64
2022/09/13 07:36:55;;;;;;;8.32;4.63;;;16.30;99.90;;;;;;10391748;28;20057;-63
2022/09/13 07:41:57;;;;;;;11.73;4.60;;;16.40;99.90;;;;;;10390023;28;20097;-64
2022/09/13 07:46:59;;;;;;;11.50;5.38;;;16.50;99.90;;;;;;10392321;28;20076;-65
2022/09/13 07:52:01;;;;;;;13.73;6.05;;;16.60;99.90;;;;;;10384899;28;20041;-64
2022/09/13 07:57:02;;;;;;;7.40;4.45;;;16.70;99.90;;;;;;10384277;28;20076;-64
2022/09/13 08:02:04;;;;;;;9.50;5.18;;;16.90;99.90;;;;;;10386280;28;20049;-64
2022/09/13 08:07:06;;;;;;;9.95;4.90;;;17.00;99.90;;;;;;10378124;28;20187;-65
2022/09/13 08:12:08;;;;;;;8.43;4.57;;;17.10;99.90;;;;;;10373779;28;20132;-65
2022/09/13 08:17:09;;;;;;;9.57;4.63;;;17.20;99.90;;;;;;10380779;28;20136;-64
2022/09/13 08:22:11;;;;;;;9.63;4.07;;;17.30;99.90;;;;;;10387172;28;20073;-65
2022/09/13 08:27:13;;;;;;;9.55;4.88;;;17.40;99.90;;;;;;10371807;28;20416;-65
2022/09/13 08:32:14;;;;;;;15.93;5.30;;;17.60;99.90;;;;;;10375251;28;20073;-65
2022/09/13 08:37:16;;;;;;;11.32;4.80;;;17.80;99.90;;;;;;10376171;28;20053;-65
2022/09/13 08:42:48;;;;;;;13.40;5.25;;;17.80;99.90;;;;;;10368629;28;20124;-65
2022/09/13 08:48:02;;;;;;;10.80;4.90;;;17.90;99.90;;;;;;10367470;28;20133;-65
2022/09/13 08:53:23;;;;;;;10.85;4.47;;;18.00;99.90;;;;;;10365832;28;20057;-65
2022/09/13 08:58:45;;;;;;;7.03;3.63;;;18.20;99.90;;;;;;10378587;28;20140;-65
2022/09/13 09:03:58;;;;;;;9.30;4.18;;;18.40;99.90;;;;;;10376904;28;20162;-65
2022/09/13 09:08:59;;;;;;;8.70;4.32;;;18.50;99.90;;;;;;10382592;28;20048;-65
2022/09/13 09:14:16;;;;;;;11.90;5.32;;;18.50;99.90;;;;;;10372434;28;20054;-64
2022/09/13 09:19:33;;;;;;;7.88;3.75;;;18.60;99.90;;;;;;10378355;28;20456;-66
2022/09/13 09:24:36;;;;;;;;;;;18.50;99.90;;;;;;10394955;28;20592;-65
2022/09/13 09:29:39;;;;;;;9.02;3.33;;;18.60;99.90;;;;;;10380445;28;20282;-66
2022/09/13 09:35:14;;;;;;;10.27;4.45;;;18.70;99.90;;;;;;10384272;28;20748;-65
2022/09/13 09:40:16;;;;;;;8.95;5.03;;;18.60;99.90;;;;;;10384144;28;20049;-64
2022/09/13 09:45:29;;;;;;;10.38;5.28;;;18.40;99.90;;;;;;10402894;28;20048;-64
2022/09/13 09:50:37;;;;;;;9.18;5.05;;;18.40;99.90;;;;;;10379513;28;20153;-63
2022/09/13 09:55:44;;;;;;;17.88;5.63;;;18.30;99.90;;;;;;10392097;28;20461;-63
2022/09/13 10:00:57;;;;;;;10.65;4.82;;;18.20;99.90;;;;;;10402186;28;20050;-64
2022/09/13 10:06:10;;;;;;;19.42;5.32;;;18.20;99.90;;;;;;10373130;28;20064;-63
2022/09/13 10:11:11;;;;;;;13.25;5.68;;;18.10;99.90;;;;;;10397863;28;20058;-64
2022/09/13 10:16:26;;;;;;;19.08;6.53;;;18.10;99.90;;;;;;10390863;28;20096;-64
2022/09/13 10:21:28;;;;;;;9.85;5.85;;;18.10;99.90;;;;;;10395059;28;20381;-64
2022/09/13 10:26:32;;;;;;;15.40;6.18;;;18.20;99.90;;;;;;10403872;28;20085;-63
2022/09/13 10:31:37;;;;;;;13.43;5.78;;;18.20;99.90;;;;;;10405162;28;20045;-64
2022/09/13 10:37:05;;;;;;;14.30;5.97;;;18.40;99.90;;;;;;10401220;28;20053;-65
2022/09/13 10:42:09;;;;;;;14.13;5.65;;;18.40;99.90;;;;;;10392996;28;20046;-64
2022/09/13 10:47:18;;;;;;;12.68;5.47;;;18.60;99.90;;;;;;10407003;28;20050;-64
2022/09/13 10:52:33;;;;;;;10.40;5.00;;;18.80;99.90;;;;;;10404157;28;20057;-64
2022/09/13 10:57:36;;;;;;;9.65;4.65;;;19.00;99.90;;;;;;10391236;28;20487;-64
2022/09/13 11:03:15;;;;;;;6.97;3.90;;;19.00;99.90;;;;;;10382885;28;20057;-64
2022/09/13 11:08:28;;;;;;;10.98;4.03;;;19.30;99.90;;;;;;10371334;28;20156;-64
2022/09/13 11:13:38;;;;;;;9.90;4.10;;;19.30;99.90;;;;;;10375295;28;20125;-65
2022/09/13 11:18:59;;;;;;;10.10;3.90;;;19.30;99.90;;;;;;10378036;28;20058;-64
2022/09/13 11:24:22;;;;;;;6.87;3.57;;;19.40;99.90;;;;;;10371264;28;20046;-64
2022/09/13 11:29:35;;;;;;;8.25;4.07;;;19.50;99.90;;;;;;10371142;28;20042;-64
2022/09/13 11:34:55;;;;;;;11.85;3.70;;;19.60;99.90;;;;;;10371527;28;20104;-64
2022/09/13 11:40:18;;;;;;;6.45;3.33;;;19.70;99.90;;;;;;10373813;28;20045;-65
2022/09/13 11:45:24;;;;;;;11.38;4.07;;;19.60;99.90;;;;;;10368433;28;20072;-64
2022/09/13 11:50:36;;;;;;;6.70;2.83;;;19.70;99.90;;;;;;10395489;28;20065;-64
2022/09/13 11:55:49;;;;;;;6.97;2.83;;;19.90;99.90;;;;;;10374915;28;20050;-64
2022/09/13 12:01:05;;;;;;;3.90;2.58;;;20.20;99.90;;;;;;10374315;28;21601;-65
2022/09/13 12:06:27;;;;;;;8.75;2.92;;;20.40;99.90;;;;;;10371307;28;20141;-64
2022/09/13 12:11:42;;;;;;;7.40;2.92;;;20.60;99.90;;;;;;10376702;28;20155;-65
2022/09/13 12:16:51;;;;;;;6.20;3.05;;;20.90;99.90;;;;;;10373588;28;20077;-65
2022/09/13 12:21:56;;;;;;;4.80;2.70;;;20.90;99.90;;;;;;10369266;28;20048;-65
2022/09/13 12:27:27;;;;;;;6.32;3.58;;;21.00;99.90;;;;;;10374310;28;20105;-66
2022/09/13 12:32:30;;;;;;;4.32;2.38;;;21.20;99.90;;;;;;10373858;28;20072;-65
2022/09/13 12:37:56;;;;;;;5.88;2.22;;;21.20;99.90;;;;;;10370061;28;20555;-65
2022/09/13 12:43:32;;;;;;;4.72;2.33;;;21.30;99.90;;;;;;10374853;28;20124;-66
2022/09/13 12:49:18;;;;;;;10.40;2.60;;;21.70;99.90;;;;;;10374463;28;20120;-64
2022/09/13 12:54:35;;;;;;;6.80;2.20;;;21.90;99.90;;;;;;10387727;28;20120;-65
2022/09/13 12:59:51;;;;;;;9.75;2.10;;;22.10;99.90;;;;;;10367118;28;20096;-66
2022/09/13 13:04:58;;;;;;;4.03;2.00;;;22.30;99.90;;;;;;10371951;28;20483;-65
2022/09/13 13:10:01;;;;;;;4.80;2.13;;;22.20;99.90;;;;;;10369267;28;20037;-64
2022/09/13 13:15:29;;;;;;;4.30;2.10;;;22.30;99.90;;;;;;10368570;28;20556;-64
2022/09/13 13:21:20;;;;;;;6.25;2.25;;;22.40;99.90;;;;;;10370409;28;20116;-65
2022/09/13 13:26:42;;;;;;;4.03;1.60;;;22.10;99.90;;;;;;10370666;28;20049;-65
2022/09/13 13:32:03;;;;;;;4.55;2.05;;;22.10;99.90;;;;;;10363013;28;20076;-66
2022/09/13 13:37:27;;;;;;;2.85;2.08;;;22.20;99.90;;;;;;10376538;28;20046;-65
2022/09/13 13:42:34;;;;;;;3.85;2.08;;;22.30;99.90;;;;;;10384810;28;20140;-65
2022/09/13 13:47:38;;;;;;;3.38;1.67;;;22.20;99.90;;;;;;10382657;28;20046;-66
2022/09/13 13:52:45;;;;;;;8.73;1.40;;;22.00;99.90;;;;;;10381180;28;20076;-66
2022/09/13 13:58:01;;;;;;;8.27;1.25;;;21.90;99.90;;;;;;10384823;28;20187;-65
2022/09/13 14:03:22;;;;;;;5.03;1.45;;;21.90;99.90;;;;;;10378646;28;20129;-67
2022/09/13 14:08:57;;;;;;;3.15;1.10;;;21.90;99.90;;;;;;10380468;28;20053;-68
2022/09/13 14:14:23;;;;;;;2.27;1.30;;;22.10;99.90;;;;;;10383772;28;20048;-65
2022/09/13 14:19:39;;;;;;;2.28;1.30;;;22.20;99.90;;;;;;10382302;28;20061;-65
2022/09/13 14:24:45;;;;;;;2.83;1.13;;;22.00;99.90;;;;;;10379577;28;20056;-65
2022/09/13 14:29:50;;;;;;;4.75;1.40;;;21.90;99.90;;;;;;10385253;28;20052;-67
2022/09/13 14:34:59;;;;;;;2.20;0.80;;;21.80;99.90;;;;;;10376721;28;20049;-65
2022/09/13 14:40:26;;;;;;;2.83;1.15;;;21.70;99.90;;;;;;10380580;28;20559;-64
2022/09/13 14:45:34;;;;;;;6.47;1.73;;;21.50;99.90;;;;;;10380104;28;20060;-64
2022/09/13 14:50:41;;;;;;;5.47;1.88;;;21.40;99.90;;;;;;10379726;28;20566;-64
2022/09/13 14:55:51;;;;;;;2.50;1.40;;;21.20;99.90;;;;;;10379738;28;20053;-64
2022/09/13 15:01:07;;;;;;;4.20;2.00;;;21.00;99.90;;;;;;10373833;28;20133;-64
2022/09/13 15:06:20;;;;;;;4.40;2.33;;;20.90;99.90;;;;;;10371715;28;20056;-64
2022/09/13 15:11:32;;;;;;;5.15;2.15;;;20.60;99.90;;;;;;10373605;28;20124;-63
2022/09/13 15:16:34;;;;;;;5.25;2.30;;;20.40;99.90;;;;;;10370831;28;20080;-64
2022/09/13 15:21:36;;;;;;;4.57;2.28;;;20.30;99.90;;;;;;10377151;28;20050;-65
2022/09/13 15:26:37;;;;;;;4.72;2.67;;;20.20;99.90;;;;;;10372677;28;20069;-65
2022/09/13 15:31:39;;;;;;;7.00;2.30;;;20.20;99.90;;;;;;10379290;28;20164;-64
2022/09/13 15:36:41;;;;;;;9.40;2.88;;;20.20;99.90;;;;;;10377663;28;20041;-64
2022/09/13 15:41:59;;;;;;;6.95;3.20;;;20.30;99.90;;;;;;10384340;28;20055;-65
2022/09/13 15:47:06;;;;;;;10.25;3.20;;;20.30;99.90;;;;;;10385813;28;20608;-64
2022/09/13 15:52:09;;;;;;;9.82;3.08;;;20.30;99.90;;;;;;10378613;28;20500;-64
2022/09/13 15:57:21;;;;;;;7.72;2.67;;;20.30;99.90;;;;;;10389988;28;20042;-68
2022/09/13 16:02:30;;;;;;;4.22;2.60;;;20.30;99.90;;;;;;10437091;28;20077;-68
2022/09/13 16:07:32;;;;;;;7.43;3.60;;;20.20;99.90;;;;;;10411281;28;20460;-68
2022/09/13 16:12:34;;;;;;;4.68;2.92;;;20.20;99.90;;;;;;10419228;28;20046;-68
2022/09/13 16:17:35;;;;;;;5.57;3.38;;;20.20;99.90;;;;;;10418587;28;20037;-69
2022/09/13 16:22:37;;;;;;;5.30;2.75;;;20.20;99.90;;;;;;10415878;28;20045;-68
2022/09/13 16:27:40;;;;;;;6.05;3.30;;;20.20;99.90;;;;;;10413945;28;20057;-69
2022/09/13 16:32:42;;;;;;;6.97;4.10;;;20.10;99.90;;;;;;10414326;28;20041;-67
2022/09/13 16:37:44;;;;;;;6.40;3.72;;;20.00;99.90;;;;;;10414867;28;20042;-67
2022/09/13 16:42:46;;;;;;;6.43;3.63;;;20.00;99.90;;;;;;10411697;28;20048;-66
2022/09/13 16:47:47;;;;;;;7.53;3.45;;;20.00;99.90;;;;;;10409449;28;20045;-67
2022/09/13 16:52:49;;;;;;;7.97;3.20;;;19.90;99.90;;;;;;10425507;28;20057;-68
2022/09/13 16:57:51;;;;;;;6.47;3.65;;;20.00;99.90;;;;;;10407287;28;20038;-67
2022/09/13 17:02:54;;;;;;;7.97;3.92;;;20.00;99.90;;;;;;10412093;28;20513;-68
2022/09/13 17:07:56;;;;;;;9.52;4.28;;;19.90;99.90;;;;;;10406650;28;20041;-68
2022/09/13 17:12:58;;;;;;;10.25;4.10;;;19.80;99.90;;;;;;10407751;28;20045;-68
2022/09/13 17:18:00;;;;;;;11.65;3.85;;;19.70;99.90;;;;;;10417249;28;20045;-68
2022/09/13 17:23:01;;;;;;;6.05;3.72;;;19.70;99.90;;;;;;10409159;28;20049;-68
2022/09/13 17:28:03;;;;;;;11.25;4.85;;;19.60;99.90;;;;;;10425315;28;20045;-68
2022/09/13 17:33:05;;;;;;;10.38;5.50;;;19.60;99.90;;;;;;10419658;28;20054;-70
2022/09/13 17:38:07;;;;;;;10.45;4.65;;;19.50;99.90;;;;;;10409193;28;20054;-68
2022/09/13 17:43:08;;;;;;;9.57;3.90;;;19.60;99.90;;;;;;10422991;28;20058;-68
2022/09/13 17:48:11;;;;;;;8.10;4.80;;;19.50;99.90;;;;;;10417363;28;20098;-67
2022/09/13 17:53:13;;;;;;;13.40;5.55;;;19.50;99.90;;;;;;10431566;28;20045;-67
2022/09/13 17:58:15;;;;;;;10.77;4.80;;;19.50;99.90;;;;;;10424562;28;20665;-68
2022/09/13 18:03:16;;;;;;;6.72;4.30;;;19.50;99.90;;;;;;10415852;28;20518;-67
2022/09/13 18:08:18;;;;;;;11.55;5.20;;;19.40;99.90;;;;;;10377996;28;20053;-68
2022/09/13 18:13:21;;;;;;;11.52;5.32;;;19.40;99.90;;;;;;10372892;28;20049;-68
2022/09/13 18:18:23;;;;;;;11.45;6.32;;;19.40;99.90;;;;;;10370082;28;20156;-69
2022/09/13 18:23:24;;;;;;;11.98;5.80;;;19.30;99.90;;;;;;10375645;28;20128;-68
2022/09/13 18:28:27;;;;;;;14.43;6.22;;;19.30;99.90;;;;;;10368862;28;20081;-68
2022/09/13 18:33:28;;;;;;;11.10;5.80;;;19.20;99.90;;;;;;10368872;28;20054;-70
2022/09/13 18:38:34;;;;;;;17.70;6.32;;;19.10;99.90;;;;;;10382159;28;20129;-70
2022/09/13 18:43:37;;;;;;;9.60;5.90;;;19.00;99.90;;;;;;10376896;28;20045;-69
2022/09/13 18:48:42;;;;;;;12.20;7.45;;;19.00;99.90;;;;;;10375525;28;20069;-70
2022/09/13 18:53:44;;;;;;;18.17;6.90;;;18.90;99.90;;;;;;10381498;28;20081;-69
2022/09/13 18:58:46;;;;;;;16.73;7.60;;;18.80;99.90;;;;;;10396930;28;20516;-69
2022/09/13 19:04:10;;;;;;;17.83;6.65;;;18.70;99.90;;;;;;10372522;28;20670;-69
2022/09/13 19:09:15;;;;;;;19.77;8.18;;;18.60;99.90;;;;;;10361489;28;20747;-70
2022/09/13 19:14:27;;;;;;;15.73;7.05;;;18.60;99.90;;;;;;10395552;28;20041;-67
2022/09/13 19:19:30;;;;;;;14.13;7.30;;;18.50;99.90;;;;;;10356408;28;20052;-69
2022/09/13 19:24:32;;;;;;;14.18;7.80;;;18.50;99.90;;;;;;10366231;28;20091;-70
2022/09/13 19:29:34;;;;;;;14.80;7.75;;;18.40;99.90;;;;;;10370994;28;20077;-69
2022/09/13 19:34:36;;;;;;;16.13;8.13;;;18.40;99.90;;;;;;10361604;28;20065;-70
2022/09/13 19:39:38;;;;;;;23.90;8.35;;;18.40;99.90;;;;;;10370403;28;20073;-68
2022/09/13 19:44:40;;;;;;;18.08;8.68;;;18.40;99.90;;;;;;10373479;28;20053;-69
2022/09/13 19:49:42;;;;;;;14.60;7.60;;;18.30;99.90;;;;;;10371940;28;20054;-70
2022/09/13 19:54:43;;;;;;;16.30;8.02;;;18.30;99.90;;;;;;10384054;28;20058;-69
2022/09/13 19:59:45;;;;;;;11.93;7.13;;;18.30;99.90;;;;;;10369663;28;20866;-70
2022/09/13 20:04:47;;;;;;;17.35;8.75;;;18.30;99.90;;;;;;10369058;28;20092;-69
2022/09/13 20:09:49;;;;;;;15.10;7.55;;;18.30;99.90;;;;;;10365729;28;20050;-70
2022/09/13 20:14:51;;;;;;;17.67;8.65;;;18.30;99.90;;;;;;10370729;28;20089;-69
2022/09/13 20:19:53;;;;;;;18.50;8.38;;;18.20;99.90;;;;;;10368637;28;20156;-69
2022/09/13 20:24:56;;;;;;;17.70;8.77;;;18.20;99.90;;;;;;10368105;28;20054;-70
2022/09/13 20:29:58;;;;;;;14.50;8.07;;;18.10;99.90;;;;;;10365283;28;20073;-69
2022/09/13 20:35:00;;;;;;;17.40;8.80;;;18.10;99.90;;;;;;10368644;28;20057;-70
2022/09/13 20:40:02;;;;;;;15.02;8.48;;;18.20;99.90;;;;;;10384998;28;20069;-68
2022/09/13 20:45:05;;;;;;;17.10;7.57;;;18.20;99.90;;;;;;10350830;28;20057;-70
2022/09/13 20:50:07;;;;;;;15.88;8.32;;;18.20;99.90;;;;;;10370255;28;20069;-68
2022/09/13 20:55:09;;;;;;;18.02;7.97;;;18.20;99.90;;;;;;10389189;28;20053;-62
2022/09/13 21:00:11;;;;;;;19.23;8.57;;;18.20;99.90;;;;;;10375656;28;20143;-62
2022/09/13 21:05:13;;;;;;;20.05;8.35;;;18.20;99.90;;;;;;10366186;28;20125;-62
2022/09/13 21:10:15;;;;;;;15.75;8.77;;;18.20;99.90;;;;;;10370094;28;20054;-63
2022/09/13 21:15:18;;;;;;;17.73;8.98;;;18.20;99.90;;;;;;10365279;28;20065;-63
2022/09/13 21:20:20;;;;;;;18.85;8.82;;;18.10;99.90;;;;;;10370515;28;20480;-64
2022/09/13 21:25:21;;;;;;;16.30;8.40;;;18.10;99.90;;;;;;10370796;28;20069;-65
2022/09/13 21:30:23;;;;;;;21.02;8.50;;;18.10;99.90;;;;;;10364369;28;23718;-65
2022/09/13 21:35:26;;;;;;;17.90;8.40;;;18.10;99.90;;;;;;10368163;28;20081;-64
2022/09/13 21:40:27;;;;;;;18.52;8.30;;;18.10;99.90;;;;;;10368526;28;20073;-63
2022/09/13 21:45:30;;;;;;;21.15;8.88;;;18.00;99.90;;;;;;10364300;28;20426;-65
2022/09/13 21:50:31;;;;;;;17.70;8.45;;;18.00;99.90;;;;;;10372786;28;20053;-63
2022/09/13 21:55:34;;;;;;;16.38;9.32;;;18.00;99.90;;;;;;10362491;28;20104;-63
2022/09/13 22:00:38;;;;;;;19.73;9.98;;;18.00;99.90;;;;;;10361672;28;20531;-66
2022/09/13 22:06:00;;;;;;;18.58;9.23;;;18.00;99.90;;;;;;10369049;28;20165;-63
2022/09/13 22:11:04;;;;;;;17.40;9.18;;;18.00;99.90;;;;;;10381664;28;20107;-68
2022/09/13 22:16:08;;;;;;;19.63;9.52;;;17.90;99.90;;;;;;10374890;28;20142;-61
2022/09/13 22:21:14;;;;;;;24.92;10.63;;;17.80;99.90;;;;;;10378593;28;20146;-64
2022/09/13 22:26:19;;;;;;;21.53;10.70;;;17.80;99.90;;;;;;10380625;28;20080;-64
2022/09/13 22:31:24;;;;;;;22.35;9.52;;;17.80;99.90;;;;;;10360070;28;20128;-63
2022/09/13 22:36:27;;;;;;;19.73;9.10;;;17.80;99.90;;;;;;10372166;28;20496;-66
2022/09/13 22:41:32;;;;;;;22.02;10.57;;;17.80;99.90;;;;;;10370759;28;20046;-64
2022/09/13 22:46:36;;;;;;;24.33;11.57;;;17.80;99.90;;;;;;10369449;28;20462;-62
2022/09/13 22:51:43;;;;;;;27.63;13.30;;;17.80;99.90;;;;;;10369311;28;20060;-64
2022/09/13 22:56:46;;;;;;;28.50;12.52;;;17.80;99.90;;;;;;10390571;28;20054;-65
2022/09/13 23:01:48;;;;;;;29.50;13.77;;;17.70;99.90;;;;;;10372576;28;20567;-62
2022/09/13 23:06:50;;;;;;;22.35;10.95;;;17.70;99.90;;;;;;10373970;28;20046;-63
2022/09/13 23:11:51;;;;;;;23.40;10.35;;;17.70;99.90;;;;;;10371268;28;20125;-64
2022/09/13 23:16:53;;;;;;;26.25;11.63;;;17.70;99.90;;;;;;10372528;28;20127;-64
2022/09/13 23:21:55;;;;;;;25.30;11.27;;;17.70;99.90;;;;;;10375116;28;20069;-62
2022/09/13 23:26:57;;;;;;;25.02;11.20;;;17.70;99.90;;;;;;10373794;28;20399;-64
2022/09/13 23:31:58;;;;;;;23.98;11.45;;;17.70;99.90;;;;;;10368951;28;20060;-64
2022/09/13 23:37:00;;;;;;;21.30;11.82;;;17.70;99.90;;;;;;10375859;28;20045;-64
2022/09/13 23:42:03;;;;;;;25.23;11.52;;;17.70;99.90;;;;;;10366582;28;20053;-63
2022/09/13 23:47:04;;;;;;;27.20;12.55;;;17.70;99.90;;;;;;10369533;28;20085;-62
2022/09/13 23:52:06;;;;;;;25.67;11.30;;;17.60;99.90;;;;;;10362944;28;20167;-64
2022/09/13 23:57:08;;;;;;;27.15;11.38;;;17.60;99.90;;;;;;10372041;28;20055;-63
